sensor_id;sensor_type;location;lat;lon;timestamp;pressure;altitude;pressure_sealevel;temperature;humidity
48563;BME280;34981;49.104;11.396;2023-04-20T00:00:04;99458.41;;;2.65;100.00
48563;BME280;34981;49.104;11.396;2023-04-20T00:02:40;99451.97;;;2.58;100.00
48563;BME280;34981;49.104;11.396;2023-04-20T00:05:08;99450.81;;;2.51;100.00
48563;BME280;34981;49.104;11.396;2023-04-20T00:07:36;99481.63;;;2.63;100.00
48563;BME280;34981;49.104;11.396;2023-04-20T00:10:04;99492.69;;;2.68;100.00
48563;BME280;34981;49.104;11.396;2023-04-20T00:12:31;99486.13;;;2.72;100.00
48563;BME280;34981;49.104;11.396;2023-04-20T00:14:58;99473.50;;;2.55;100.00
48563;BME280;34981;49.104;11.396;2023-04-20T00:17:26;99482.13;;;2.57;100.00
48563;BME280;34981;49.104;11.396;2023-04-20T00:19:53;99490.41;;;2.63;100.00
48563;BME280;34981;49.104;11.396;2023-04-20T00:22:20;99491.72;;;2.69;100.00
48563;BME280;34981;49.104;11.396;2023-04-20T00:24:47;99498.00;;;2.68;100.00
48563;BME280;34981;49.104;11.396;2023-04-20T00:27:14;99478.50;;;2.58;100.00
48563;BME280;34981;49.104;11.396;2023-04-20T00:29:41;99494.00;;;2.53;100.00
48563;BME280;34981;49.104;11.396;2023-04-20T00:32:08;99486.03;;;2.53;100.00
48563;BME280;34981;49.104;11.396;2023-04-20T00:34:35;99494.72;;;2.55;100.00
48563;BME280;34981;49.104;11.396;2023-04-20T00:37:03;99505.06;;;2.58;100.00
48563;BME280;34981;49.104;11.396;2023-04-20T00:39:30;99517.13;;;2.62;100.00
48563;BME280;34981;49.104;11.396;2023-04-20T00:42:07;99508.44;;;2.60;100.00
48563;BME280;34981;49.104;11.396;2023-04-20T00:44:34;99506.44;;;2.52;100.00
48563;BME280;34981;49.104;11.396;2023-04-20T00:47:01;99511.16;;;2.49;100.00
48563;BME280;34981;49.104;11.396;2023-04-20T00:49:29;99502.03;;;2.42;100.00
48563;BME280;34981;49.104;11.396;2023-04-20T00:51:56;99513.38;;;2.44;100.00
48563;BME280;34981;49.104;11.396;2023-04-20T00:54:25;99517.47;;;2.48;100.00
48563;BME280;34981;49.104;11.396;2023-04-20T00:56:52;99520.25;;;2.46;100.00
48563;BME280;34981;49.104;11.396;2023-04-20T00:59:20;99515.31;;;2.42;100.00
48563;BME280;34981;49.104;11.396;2023-04-20T01:01:47;99528.34;;;2.45;100.00
48563;BME280;34981;49.104;11.396;2023-04-20T01:04:14;99531.72;;;2.47;100.00
48563;BME280;34981;49.104;11.396;2023-04-20T01:06:42;99533.78;;;2.43;100.00
48563;BME280;34981;49.104;11.396;2023-04-20T01:09:09;99511.91;;;2.30;100.00
48563;BME280;34981;49.104;11.396;2023-04-20T01:11:38;99518.59;;;2.24;100.00
48563;BME280;34981;49.104;11.396;2023-04-20T01:14:05;99525.31;;;2.28;100.00
48563;BME280;34981;49.104;11.396;2023-04-20T01:16:32;99520.28;;;2.25;100.00
48563;BME280;34981;49.104;11.396;2023-04-20T01:19:03;99515.97;;;2.13;100.00
48563;BME280;34981;49.104;11.396;2023-04-20T01:21:32;99540.06;;;2.21;100.00
48563;BME280;34981;49.104;11.396;2023-04-20T01:23:59;99539.31;;;2.30;100.00
48563;BME280;34981;49.104;11.396;2023-04-20T01:26:27;99529.56;;;2.20;100.00
48563;BME280;34981;49.104;11.396;2023-04-20T01:28:54;99536.13;;;2.16;100.00
48563;BME280;34981;49.104;11.396;2023-04-20T01:31:21;99550.69;;;2.21;100.00
48563;BME280;34981;49.104;11.396;2023-04-20T01:33:50;99566.38;;;2.24;100.00
48563;BME280;34981;49.104;11.396;2023-04-20T01:36:19;99558.28;;;2.26;100.00
48563;BME280;34981;49.104;11.396;2023-04-20T01:38:47;99567.34;;;2.23;100.00
48563;BME280;34981;49.104;11.396;2023-04-20T01:41:14;99563.00;;;2.22;100.00
48563;BME280;34981;49.104;11.396;2023-04-20T01:43:42;99567.34;;;2.23;100.00
48563;BME280;34981;49.104;11.396;2023-04-20T01:46:11;99566.72;;;2.20;100.00
48563;BME280;34981;49.104;11.396;2023-04-20T01:48:39;99556.59;;;2.04;100.00
48563;BME280;34981;49.104;11.396;2023-04-20T01:51:07;99548.91;;;1.90;100.00
48563;BME280;34981;49.104;11.396;2023-04-20T01:53:35;99579.28;;;1.97;100.00
48563;BME280;34981;49.104;11.396;2023-04-20T01:56:02;99591.09;;;2.04;100.00
48563;BME280;34981;49.104;11.396;2023-04-20T01:58:29;99589.63;;;2.00;100.00
48563;BME280;34981;49.104;11.396;2023-04-20T02:00:57;99599.72;;;2.06;100.00
48563;BME280;34981;49.104;11.396;2023-04-20T02:03:25;99599.41;;;2.00;100.00
48563;BME280;34981;49.104;11.396;2023-04-20T02:05:53;99605.09;;;1.95;100.00
48563;BME280;34981;49.104;11.396;2023-04-20T02:08:21;99614.75;;;1.96;100.00
48563;BME280;34981;49.104;11.396;2023-04-20T02:10:48;99606.69;;;1.86;100.00
48563;BME280;34981;49.104;11.396;2023-04-20T02:13:15;99606.13;;;1.72;100.00
48563;BME280;34981;49.104;11.396;2023-04-20T02:15:44;99618.44;;;1.73;100.00
48563;BME280;34981;49.104;11.396;2023-04-20T02:18:11;99626.97;;;1.76;100.00
48563;BME280;34981;49.104;11.396;2023-04-20T02:20:38;99631.22;;;1.68;100.00
48563;BME280;34981;49.104;11.396;2023-04-20T02:23:06;99630.25;;;1.58;100.00
48563;BME280;34981;49.104;11.396;2023-04-20T02:25:34;99653.53;;;1.65;100.00
48563;BME280;34981;49.104;11.396;2023-04-20T02:28:03;99666.91;;;1.75;100.00
48563;BME280;34981;49.104;11.396;2023-04-20T02:30:30;99646.41;;;1.54;100.00
48563;BME280;34981;49.104;11.396;2023-04-20T02:32:57;99676.78;;;1.73;100.00
48563;BME280;34981;49.104;11.396;2023-04-20T02:35:25;99664.75;;;1.58;100.00
48563;BME280;34981;49.104;11.396;2023-04-20T02:37:52;99669.22;;;1.46;100.00
48563;BME280;34981;49.104;11.396;2023-04-20T02:40:19;99698.50;;;1.44;100.00
48563;BME280;34981;49.104;11.396;2023-04-20T02:42:46;99703.28;;;1.39;100.00
48563;BME280;34981;49.104;11.396;2023-04-20T02:45:13;99728.03;;;1.51;100.00
48563;BME280;34981;49.104;11.396;2023-04-20T02:47:43;99712.22;;;1.27;100.00
48563;BME280;34981;49.104;11.396;2023-04-20T02:50:13;99730.66;;;1.29;100.00
48563;BME280;34981;49.104;11.396;2023-04-20T02:53:01;99748.59;;;1.47;100.00
48563;BME280;34981;49.104;11.396;2023-04-20T02:55:31;99746.66;;;1.27;100.00
48563;BME280;34981;49.104;11.396;2023-04-20T02:58:05;99727.75;;;1.21;100.00
48563;BME280;34981;49.104;11.396;2023-04-20T03:01:08;99722.91;;;1.26;100.00
48563;BME280;34981;49.104;11.396;2023-04-20T03:03:36;99771.25;;;1.40;100.00
48563;BME280;34981;49.104;11.396;2023-04-20T03:06:07;99769.34;;;1.42;100.00
48563;BME280;34981;49.104;11.396;2023-04-20T03:08:34;99773.06;;;1.40;100.00
48563;BME280;34981;49.104;11.396;2023-04-20T03:11:20;99758.75;;;1.31;100.00
48563;BME280;34981;49.104;11.396;2023-04-20T03:13:47;99776.56;;;1.29;100.00
48563;BME280;34981;49.104;11.396;2023-04-20T03:16:15;99773.78;;;1.31;100.00
48563;BME280;34981;49.104;11.396;2023-04-20T03:18:48;99752.38;;;0.99;100.00
48563;BME280;34981;49.104;11.396;2023-04-20T03:21:15;99784.44;;;1.07;100.00
48563;BME280;34981;49.104;11.396;2023-04-20T03:23:43;99794.69;;;1.11;100.00
48563;BME280;34981;49.104;11.396;2023-04-20T03:26:10;99806.19;;;1.23;100.00
48563;BME280;34981;49.104;11.396;2023-04-20T03:28:48;99779.53;;;1.13;100.00
48563;BME280;34981;49.104;11.396;2023-04-20T03:31:18;99785.88;;;1.11;100.00
48563;BME280;34981;49.104;11.396;2023-04-20T03:33:45;99811.47;;;1.23;100.00
48563;BME280;34981;49.104;11.396;2023-04-20T03:36:12;99826.66;;;1.32;100.00
48563;BME280;34981;49.104;11.396;2023-04-20T03:38:41;99800.94;;;1.10;100.00
48563;BME280;34981;49.104;11.396;2023-04-20T03:41:08;99818.91;;;1.18;100.00
48563;BME280;34981;49.104;11.396;2023-04-20T03:43:35;99813.03;;;1.14;100.00
48563;BME280;34981;49.104;11.396;2023-04-20T03:46:02;99795.13;;;0.94;100.00
48563;BME280;34981;49.104;11.396;2023-04-20T03:48:29;99815.00;;;1.00;100.00
48563;BME280;34981;49.104;11.396;2023-04-20T03:50:56;99817.66;;;1.00;100.00
48563;BME280;34981;49.104;11.396;2023-04-20T03:53:24;99812.09;;;0.92;100.00
48563;BME280;34981;49.104;11.396;2023-04-20T03:55:52;99808.81;;;0.88;100.00
48563;BME280;34981;49.104;11.396;2023-04-20T03:58:20;99832.25;;;1.05;100.00
48563;BME280;34981;49.104;11.396;2023-04-20T04:01:08;99820.34;;;1.11;100.00
48563;BME280;34981;49.104;11.396;2023-04-20T04:03:40;99837.81;;;1.13;100.00
48563;BME280;34981;49.104;11.396;2023-04-20T04:06:09;99834.53;;;1.10;100.00
48563;BME280;34981;49.104;11.396;2023-04-20T04:08:36;99832.13;;;1.07;100.00
48563;BME280;34981;49.104;11.396;2023-04-20T04:11:04;99830.44;;;1.06;100.00
48563;BME280;34981;49.104;11.396;2023-04-20T04:13:31;99830.34;;;1.07;100.00
48563;BME280;34981;49.104;11.396;2023-04-20T04:16:02;99839.13;;;1.08;100.00
48563;BME280;34981;49.104;11.396;2023-04-20T04:18:29;99862.31;;;1.28;100.00
48563;BME280;34981;49.104;11.396;2023-04-20T04:21:01;99848.34;;;1.26;100.00
48563;BME280;34981;49.104;11.396;2023-04-20T04:23:29;99848.63;;;1.10;100.00
48563;BME280;34981;49.104;11.396;2023-04-20T04:26:06;99842.16;;;1.14;100.00
48563;BME280;34981;49.104;11.396;2023-04-20T04:28:36;99858.56;;;1.20;100.00
48563;BME280;34981;49.104;11.396;2023-04-20T04:31:16;99832.25;;;1.05;100.00
48563;BME280;34981;49.104;11.396;2023-04-20T04:33:45;99843.72;;;1.17;100.00
48563;BME280;34981;49.104;11.396;2023-04-20T04:36:23;99839.53;;;1.14;100.00
48563;BME280;34981;49.104;11.396;2023-04-20T04:38:54;99861.09;;;1.21;100.00
48563;BME280;34981;49.104;11.396;2023-04-20T04:41:22;99865.91;;;1.16;100.00
48563;BME280;34981;49.104;11.396;2023-04-20T04:43:51;99860.22;;;1.09;100.00
48563;BME280;34981;49.104;11.396;2023-04-20T04:46:24;99865.19;;;1.25;100.00
48563;BME280;34981;49.104;11.396;2023-04-20T04:48:56;99874.91;;;1.37;100.00
48563;BME280;34981;49.104;11.396;2023-04-20T04:51:27;99867.41;;;1.31;100.00
48563;BME280;34981;49.104;11.396;2023-04-20T04:53:54;99874.38;;;1.32;100.00
48563;BME280;34981;49.104;11.396;2023-04-20T04:56:21;99885.63;;;1.36;100.00
48563;BME280;34981;49.104;11.396;2023-04-20T04:58:49;99874.84;;;1.26;100.00
48563;BME280;34981;49.104;11.396;2023-04-20T05:01:16;99880.41;;;1.23;100.00
48563;BME280;34981;49.104;11.396;2023-04-20T05:03:43;99882.75;;;1.15;100.00
48563;BME280;34981;49.104;11.396;2023-04-20T05:06:11;99910.88;;;1.29;100.00
48563;BME280;34981;49.104;11.396;2023-04-20T05:08:38;99912.13;;;1.36;100.00
48563;BME280;34981;49.104;11.396;2023-04-20T05:11:05;99915.38;;;1.39;100.00
48563;BME280;34981;49.104;11.396;2023-04-20T05:13:32;99908.97;;;1.31;100.00
48563;BME280;34981;49.104;11.396;2023-04-20T05:15:59;99914.03;;;1.34;100.00
48563;BME280;34981;49.104;11.396;2023-04-20T05:18:26;99919.00;;;1.38;100.00
48563;BME280;34981;49.104;11.396;2023-04-20T05:20:53;99916.94;;;1.31;100.00
48563;BME280;34981;49.104;11.396;2023-04-20T05:23:20;99920.81;;;1.38;100.00
48563;BME280;34981;49.104;11.396;2023-04-20T05:25:48;99926.72;;;1.41;100.00
48563;BME280;34981;49.104;11.396;2023-04-20T05:28:15;99925.03;;;1.40;100.00
48563;BME280;34981;49.104;11.396;2023-04-20T05:30:42;99924.06;;;1.41;100.00
48563;BME280;34981;49.104;11.396;2023-04-20T05:33:09;99923.47;;;1.38;100.00
48563;BME280;34981;49.104;11.396;2023-04-20T05:35:36;99941.19;;;1.48;100.00
48563;BME280;34981;49.104;11.396;2023-04-20T05:38:06;99948.94;;;1.51;100.00
48563;BME280;34981;49.104;11.396;2023-04-20T05:40:33;99955.09;;;1.52;100.00
48563;BME280;34981;49.104;11.396;2023-04-20T05:43:01;99948.69;;;1.54;100.00
48563;BME280;34981;49.104;11.396;2023-04-20T05:45:28;99956.53;;;1.56;100.00
48563;BME280;34981;49.104;11.396;2023-04-20T05:47:55;99975.38;;;1.64;100.00
48563;BME280;34981;49.104;11.396;2023-04-20T05:50:23;99968.50;;;1.62;100.00
48563;BME280;34981;49.104;11.396;2023-04-20T05:52:51;99970.19;;;1.63;100.00
48563;BME280;34981;49.104;11.396;2023-04-20T05:55:18;99970.72;;;1.68;100.00
48563;BME280;34981;49.104;11.396;2023-04-20T05:57:49;99966.34;;;1.67;100.00
48563;BME280;34981;49.104;11.396;2023-04-20T06:00:17;99980.75;;;1.75;100.00
48563;BME280;34981;49.104;11.396;2023-04-20T06:02:45;99987.84;;;1.75;100.00
48563;BME280;34981;49.104;11.396;2023-04-20T06:05:12;99990.63;;;1.73;100.00
48563;BME280;34981;49.104;11.396;2023-04-20T06:07:40;99995.34;;;1.81;100.00
48563;BME280;34981;49.104;11.396;2023-04-20T06:10:07;99995.72;;;1.87;100.00
48563;BME280;34981;49.104;11.396;2023-04-20T06:12:34;100002.59;;;1.90;100.00
48563;BME280;34981;49.104;11.396;2023-04-20T06:15:02;100003.22;;;1.93;100.00
48563;BME280;34981;49.104;11.396;2023-04-20T06:17:30;99944.38;;;2.00;100.00
48563;BME280;34981;49.104;11.396;2023-04-20T06:19:57;99958.25;;;2.03;100.00
48563;BME280;34981;49.104;11.396;2023-04-20T06:22:24;99956.72;;;2.12;100.00
48563;BME280;34981;49.104;11.396;2023-04-20T06:24:52;99954.06;;;2.12;100.00
48563;BME280;34981;49.104;11.396;2023-04-20T06:27:19;99949.72;;;2.11;100.00
48563;BME280;34981;49.104;11.396;2023-04-20T06:29:46;99958.75;;;2.19;100.00
48563;BME280;34981;49.104;11.396;2023-04-20T06:32:13;99964.69;;;2.23;100.00
48563;BME280;34981;49.104;11.396;2023-04-20T06:34:40;99959.38;;;2.23;100.00
48563;BME280;34981;49.104;11.396;2023-04-20T06:37:07;99967.97;;;2.26;100.00
48563;BME280;34981;49.104;11.396;2023-04-20T06:39:34;99959.72;;;2.29;100.00
48563;BME280;34981;49.104;11.396;2023-04-20T06:42:01;99970.84;;;2.34;100.00
48563;BME280;34981;49.104;11.396;2023-04-20T06:44:29;99981.81;;;2.41;100.00
48563;BME280;34981;49.104;11.396;2023-04-20T06:46:56;99978.56;;;2.38;100.00
48563;BME280;34981;49.104;11.396;2023-04-20T06:49:23;99987.97;;;2.42;100.00
48563;BME280;34981;49.104;11.396;2023-04-20T06:51:50;99985.56;;;2.50;100.00
48563;BME280;34981;49.104;11.396;2023-04-20T06:54:17;99988.47;;;2.58;100.00
48563;BME280;34981;49.104;11.396;2023-04-20T06:56:45;99990.16;;;2.59;100.00
48563;BME280;34981;49.104;11.396;2023-04-20T06:59:12;99998.63;;;2.64;100.00
48563;BME280;34981;49.104;11.396;2023-04-20T07:01:42;99996.31;;;2.70;100.00
48563;BME280;34981;49.104;11.396;2023-04-20T07:04:09;99997.91;;;2.73;100.00
48563;BME280;34981;49.104;11.396;2023-04-20T07:06:36;99996.34;;;2.82;100.00
48563;BME280;34981;49.104;11.396;2023-04-20T07:09:04;99990.91;;;2.83;100.00
48563;BME280;34981;49.104;11.396;2023-04-20T07:11:31;99990.63;;;2.86;100.00
48563;BME280;34981;49.104;11.396;2023-04-20T07:13:58;99999.59;;;2.96;100.00
48563;BME280;34981;49.104;11.396;2023-04-20T07:16:25;100010.19;;;3.07;100.00
48563;BME280;34981;49.104;11.396;2023-04-20T07:18:52;100002.94;;;3.09;100.00
48563;BME280;34981;49.104;11.396;2023-04-20T07:21:20;100007.66;;;3.17;100.00
48563;BME280;34981;49.104;11.396;2023-04-20T07:23:47;100000.41;;;3.19;100.00
48563;BME280;34981;49.104;11.396;2023-04-20T07:26:14;100002.66;;;3.24;100.00
48563;BME280;34981;49.104;11.396;2023-04-20T07:28:41;99990.09;;;3.26;100.00
48563;BME280;34981;49.104;11.396;2023-04-20T07:31:09;100004.09;;;3.39;100.00
48563;BME280;34981;49.104;11.396;2023-04-20T07:33:36;100018.91;;;3.64;100.00
48563;BME280;34981;49.104;11.396;2023-04-20T07:36:03;100003.81;;;3.53;100.00
48563;BME280;34981;49.104;11.396;2023-04-20T07:38:32;100008.94;;;3.66;100.00
48563;BME280;34981;49.104;11.396;2023-04-20T07:40:59;100014.63;;;3.72;100.00
48563;BME280;34981;49.104;11.396;2023-04-20T07:43:26;99982.97;;;3.58;100.00
48563;BME280;34981;49.104;11.396;2023-04-20T07:45:53;99995.28;;;3.70;100.00
48563;BME280;34981;49.104;11.396;2023-04-20T07:48:20;99991.13;;;3.77;100.00
48563;BME280;34981;49.104;11.396;2023-04-20T07:50:47;100003.88;;;3.95;100.00
48563;BME280;34981;49.104;11.396;2023-04-20T07:53:14;99990.72;;;3.93;100.00
48563;BME280;34981;49.104;11.396;2023-04-20T07:55:42;99972.72;;;3.85;100.00
48563;BME280;34981;49.104;11.396;2023-04-20T07:58:09;99994.09;;;4.16;100.00
48563;BME280;34981;49.104;11.396;2023-04-20T08:00:36;99983.34;;;4.27;100.00
48563;BME280;34981;49.104;11.396;2023-04-20T08:03:03;99967.91;;;4.21;100.00
48563;BME280;34981;49.104;11.396;2023-04-20T08:05:31;99955.69;;;4.18;100.00
48563;BME280;34981;49.104;11.396;2023-04-20T08:07:58;99950.28;;;4.29;100.00
48563;BME280;34981;49.104;11.396;2023-04-20T08:10:26;99925.94;;;4.13;100.00
48563;BME280;34981;49.104;11.396;2023-04-20T08:12:53;99943.59;;;4.35;100.00
48563;BME280;34981;49.104;11.396;2023-04-20T08:15:20;99923.66;;;4.29;100.00
48563;BME280;34981;49.104;11.396;2023-04-20T08:17:47;99912.34;;;4.37;100.00
48563;BME280;34981;49.104;11.396;2023-04-20T08:20:15;99909.44;;;4.50;100.00
48563;BME280;34981;49.104;11.396;2023-04-20T08:22:45;99879.25;;;4.40;100.00
48563;BME280;34981;49.104;11.396;2023-04-20T08:25:12;99868.47;;;4.41;100.00
48563;BME280;34981;49.104;11.396;2023-04-20T08:27:39;99883.41;;;4.63;100.00
48563;BME280;34981;49.104;11.396;2023-04-20T08:30:07;99902.16;;;5.01;100.00
48563;BME280;34981;49.104;11.396;2023-04-20T08:32:34;99880.78;;;4.92;100.00
48563;BME280;34981;49.104;11.396;2023-04-20T08:35:03;99858.88;;;4.79;100.00
48563;BME280;34981;49.104;11.396;2023-04-20T08:37:30;99839.81;;;4.74;100.00
48563;BME280;34981;49.104;11.396;2023-04-20T08:39:59;99850.22;;;5.05;100.00
48563;BME280;34981;49.104;11.396;2023-04-20T08:42:26;99838.56;;;5.06;100.00
48563;BME280;34981;49.104;11.396;2023-04-20T08:44:53;99862.00;;;5.41;100.00
48563;BME280;34981;49.104;11.396;2023-04-20T08:47:20;99864.25;;;5.56;100.00
48563;BME280;34981;49.104;11.396;2023-04-20T08:49:47;99839.16;;;5.39;100.00
48563;BME280;34981;49.104;11.396;2023-04-20T08:52:18;99795.75;;;4.98;100.00
48563;BME280;34981;49.104;11.396;2023-04-20T08:54:45;99813.88;;;5.24;100.00
48563;BME280;34981;49.104;11.396;2023-04-20T08:57:23;99783.28;;;5.18;100.00
48563;BME280;34981;49.104;11.396;2023-04-20T08:59:51;99797.31;;;5.30;100.00
48563;BME280;34981;49.104;11.396;2023-04-20T09:02:18;99775.97;;;5.20;100.00
48563;BME280;34981;49.104;11.396;2023-04-20T09:04:46;99764.88;;;5.15;100.00
48563;BME280;34981;49.104;11.396;2023-04-20T09:07:16;99758.44;;;5.18;100.00
48563;BME280;34981;49.104;11.396;2023-04-20T09:09:53;99755.72;;;5.27;100.00
48563;BME280;34981;49.104;11.396;2023-04-20T09:12:22;99739.72;;;5.27;100.00
48563;BME280;34981;49.104;11.396;2023-04-20T09:14:50;99728.53;;;5.24;100.00
48563;BME280;34981;49.104;11.396;2023-04-20T09:17:29;99729.22;;;5.26;100.00
48563;BME280;34981;49.104;11.396;2023-04-20T09:19:57;99713.06;;;5.27;100.00
48563;BME280;34981;49.104;11.396;2023-04-20T09:22:28;99717.25;;;5.39;100.00
48563;BME280;34981;49.104;11.396;2023-04-20T09:24:55;99705.44;;;5.42;100.00
48563;BME280;34981;49.104;11.396;2023-04-20T09:27:22;99690.59;;;5.30;100.00
48563;BME280;34981;49.104;11.396;2023-04-20T09:29:58;99658.47;;;5.12;100.00
48563;BME280;34981;49.104;11.396;2023-04-20T09:32:26;99645.59;;;5.07;100.00
48563;BME280;34981;49.104;11.396;2023-04-20T09:34:58;99650.06;;;5.17;100.00
48563;BME280;34981;49.104;11.396;2023-04-20T09:37:25;99652.13;;;5.23;100.00
48563;BME280;34981;49.104;11.396;2023-04-20T09:39:54;99616.13;;;4.99;100.00
48563;BME280;34981;49.104;11.396;2023-04-20T09:42:25;99606.44;;;5.08;100.00
48563;BME280;34981;49.104;11.396;2023-04-20T09:44:53;99585.44;;;4.95;100.00
48563;BME280;34981;49.104;11.396;2023-04-20T09:47:20;99607.53;;;5.15;100.00
48563;BME280;34981;49.104;11.396;2023-04-20T09:49:48;99590.94;;;5.21;100.00
48563;BME280;34981;49.104;11.396;2023-04-20T09:52:16;99578.06;;;5.07;100.00
48563;BME280;34981;49.104;11.396;2023-04-20T09:54:46;99553.19;;;4.89;100.00
48563;BME280;34981;49.104;11.396;2023-04-20T09:57:14;99553.25;;;4.97;100.00
48563;BME280;34981;49.104;11.396;2023-04-20T09:59:42;99539.84;;;4.89;100.00
48563;BME280;34981;49.104;11.396;2023-04-20T10:02:10;99540.53;;;4.91;100.00
48563;BME280;34981;49.104;11.396;2023-04-20T10:04:51;99539.00;;;4.88;100.00
48563;BME280;34981;49.104;11.396;2023-04-20T10:07:25;99530.44;;;4.85;100.00
48563;BME280;34981;49.104;11.396;2023-04-20T10:10:05;99533.41;;;4.82;100.00
48563;BME280;34981;49.104;11.396;2023-04-20T10:12:33;99525.97;;;4.76;100.00
48563;BME280;34981;49.104;11.396;2023-04-20T10:15:12;99521.81;;;4.73;100.00
48563;BME280;34981;49.104;11.396;2023-04-20T10:17:39;99533.00;;;4.77;100.00
48563;BME280;34981;49.104;11.396;2023-04-20T10:20:40;99538.31;;;4.77;100.00
48563;BME280;34981;49.104;11.396;2023-04-20T10:23:06;99530.16;;;4.88;100.00
48563;BME280;34981;49.104;11.396;2023-04-20T10:25:34;99529.09;;;4.71;100.00
48563;BME280;34981;49.104;11.396;2023-04-20T10:28:03;99525.88;;;4.67;100.00
48563;BME280;34981;49.104;11.396;2023-04-20T10:30:32;99515.63;;;4.73;100.00
48563;BME280;34981;49.104;11.396;2023-04-20T10:35:39;99520.66;;;4.76;100.00
48563;BME280;34981;49.104;11.396;2023-04-20T10:38:06;99501.00;;;4.77;100.00
48563;BME280;34981;49.104;11.396;2023-04-20T10:40:34;99527.19;;;4.91;100.00
48563;BME280;34981;49.104;11.396;2023-04-20T10:43:01;99534.16;;;5.11;100.00
48563;BME280;34981;49.104;11.396;2023-04-20T10:45:34;99543.31;;;5.26;100.00
48563;BME280;34981;49.104;11.396;2023-04-20T10:48:06;99511.78;;;4.85;100.00
48563;BME280;34981;49.104;11.396;2023-04-20T10:50:34;99530.94;;;4.98;100.00
48563;BME280;34981;49.104;11.396;2023-04-20T10:53:01;99543.22;;;5.18;100.00
48563;BME280;34981;49.104;11.396;2023-04-20T10:55:30;99534.22;;;5.19;100.00
48563;BME280;34981;49.104;11.396;2023-04-20T10:57:57;99506.94;;;4.98;100.00
48563;BME280;34981;49.104;11.396;2023-04-20T11:00:25;99513.47;;;5.13;100.00
48563;BME280;34981;49.104;11.396;2023-04-20T11:02:53;99518.63;;;5.24;100.00
48563;BME280;34981;49.104;11.396;2023-04-20T11:05:23;99495.22;;;5.18;100.00
48563;BME280;34981;49.104;11.396;2023-04-20T11:10:19;99498.31;;;5.59;100.00
48563;BME280;34981;49.104;11.396;2023-04-20T11:12:46;99483.69;;;5.63;100.00
48563;BME280;34981;49.104;11.396;2023-04-20T11:15:13;99473.16;;;5.43;100.00
48563;BME280;34981;49.104;11.396;2023-04-20T11:17:42;99501.78;;;5.69;100.00
48563;BME280;34981;49.104;11.396;2023-04-20T11:20:13;99486.06;;;5.66;100.00
48563;BME280;34981;49.104;11.396;2023-04-20T11:22:41;99458.59;;;5.56;100.00
48563;BME280;34981;49.104;11.396;2023-04-20T11:25:09;99431.38;;;5.34;100.00
48563;BME280;34981;49.104;11.396;2023-04-20T11:27:37;99477.13;;;5.75;100.00
48563;BME280;34981;49.104;11.396;2023-04-20T11:30:05;99457.84;;;5.81;100.00
48563;BME280;34981;49.104;11.396;2023-04-20T11:32:34;99444.34;;;5.65;100.00
48563;BME280;34981;49.104;11.396;2023-04-20T11:35:05;99451.66;;;5.80;100.00
48563;BME280;34981;49.104;11.396;2023-04-20T11:37:47;99452.97;;;5.94;100.00
48563;BME280;34981;49.104;11.396;2023-04-20T11:40:17;99427.47;;;5.82;100.00
48563;BME280;34981;49.104;11.396;2023-04-20T11:42:44;99445.94;;;5.93;100.00
48563;BME280;34981;49.104;11.396;2023-04-20T11:45:12;99427.00;;;5.86;100.00
48563;BME280;34981;49.104;11.396;2023-04-20T11:47:39;99433.91;;;5.89;100.00
48563;BME280;34981;49.104;11.396;2023-04-20T11:50:07;99419.63;;;5.98;100.00
48563;BME280;34981;49.104;11.396;2023-04-20T11:52:36;99392.22;;;5.78;100.00
48563;BME280;34981;49.104;11.396;2023-04-20T11:55:03;99385.28;;;5.85;100.00
48563;BME280;34981;49.104;11.396;2023-04-20T11:57:30;99382.59;;;5.85;100.00
48563;BME280;34981;49.104;11.396;2023-04-20T11:59:58;99374.19;;;5.90;100.00
48563;BME280;34981;49.104;11.396;2023-04-20T12:02:25;99379.19;;;5.93;100.00
48563;BME280;34981;49.104;11.396;2023-04-20T12:04:53;99381.63;;;6.04;100.00
48563;BME280;34981;49.104;11.396;2023-04-20T12:07:20;99375.59;;;6.02;100.00
48563;BME280;34981;49.104;11.396;2023-04-20T12:09:48;99378.94;;;6.04;100.00
48563;BME280;34981;49.104;11.396;2023-04-20T12:12:15;99389.84;;;6.11;100.00
48563;BME280;34981;49.104;11.396;2023-04-20T12:14:42;99379.19;;;6.19;100.00
48563;BME280;34981;49.104;11.396;2023-04-20T12:17:09;99365.34;;;6.23;100.00
48563;BME280;34981;49.104;11.396;2023-04-20T12:19:37;99361.69;;;6.24;100.00
48563;BME280;34981;49.104;11.396;2023-04-20T12:22:04;99353.19;;;6.29;100.00
48563;BME280;34981;49.104;11.396;2023-04-20T12:24:31;99355.41;;;6.34;100.00
48563;BME280;34981;49.104;11.396;2023-04-20T12:26:58;99337.00;;;6.31;100.00
48563;BME280;34981;49.104;11.396;2023-04-20T12:29:25;99334.69;;;6.28;100.00
48563;BME280;34981;49.104;11.396;2023-04-20T12:31:52;99337.34;;;6.36;100.00
48563;BME280;34981;49.104;11.396;2023-04-20T12:34:19;99327.09;;;6.49;100.00
48563;BME280;34981;49.104;11.396;2023-04-20T12:36:47;99288.72;;;6.24;100.00
48563;BME280;34981;49.104;11.396;2023-04-20T12:39:14;99338.16;;;6.62;100.00
48563;BME280;34981;49.104;11.396;2023-04-20T12:41:41;99303.91;;;6.57;100.00
48563;BME280;34981;49.104;11.396;2023-04-20T12:44:08;99333.22;;;6.91;100.00
48563;BME280;34981;49.104;11.396;2023-04-20T12:46:37;99350.34;;;7.15;100.00
48563;BME280;34981;49.104;11.396;2023-04-20T12:49:04;99315.38;;;7.00;100.00
48563;BME280;34981;49.104;11.396;2023-04-20T12:51:32;99291.44;;;6.98;100.00
48563;BME280;34981;49.104;11.396;2023-04-20T12:53:59;99295.47;;;7.11;100.00
48563;BME280;34981;49.104;11.396;2023-04-20T12:56:26;99300.50;;;7.22;100.00
48563;BME280;34981;49.104;11.396;2023-04-20T12:58:53;99295.63;;;7.25;100.00
48563;BME280;34981;49.104;11.396;2023-04-20T13:01:20;99283.94;;;7.26;100.00